sensor_id;sensor_type;location;lat;lon;timestamp;pressure;altitude;pressure_sealevel;temperature;humidity
41624;BME280;27319;50.306;18.926;2023-08-06T00:01:05;97008.00;;;18.64;100.00
41624;BME280;27319;50.306;18.926;2023-08-06T00:05:06;96976.63;;;18.73;100.00
41624;BME280;27319;50.306;18.926;2023-08-06T00:09:06;96951.63;;;18.76;100.00
41624;BME280;27319;50.306;18.926;2023-08-06T00:13:07;96948.34;;;18.74;100.00
41624;BME280;27319;50.306;18.926;2023-08-06T00:17:08;96934.19;;;18.72;100.00
41624;BME280;27319;50.306;18.926;2023-08-06T00:21:09;96925.78;;;18.73;100.00
41624;BME280;27319;50.306;18.926;2023-08-06T00:25:09;96881.28;;;18.79;100.00
41624;BME280;27319;50.306;18.926;2023-08-06T00:29:10;96854.41;;;18.83;100.00
41624;BME280;27319;50.306;18.926;2023-08-06T00:33:10;96831.53;;;18.79;100.00
41624;BME280;27319;50.306;18.926;2023-08-06T00:37:11;96815.22;;;18.79;100.00
41624;BME280;27319;50.306;18.926;2023-08-06T00:41:12;96778.81;;;18.80;100.00
41624;BME280;27319;50.306;18.926;2023-08-06T00:45:12;96730.97;;;18.79;100.00
41624;BME280;27319;50.306;18.926;2023-08-06T00:49:13;96732.66;;;18.85;100.00
41624;BME280;27319;50.306;18.926;2023-08-06T00:53:14;96781.47;;;18.75;100.00
41624;BME280;27319;50.306;18.926;2023-08-06T00:57:15;96835.38;;;18.61;100.00
41624;BME280;27319;50.306;18.926;2023-08-06T01:01:15;96759.72;;;18.75;100.00
41624;BME280;27319;50.306;18.926;2023-08-06T01:05:16;96785.22;;;18.69;100.00
41624;BME280;27319;50.306;18.926;2023-08-06T01:09:22;96748.84;;;18.75;100.00
41624;BME280;27319;50.306;18.926;2023-08-06T01:13:32;96729.56;;;18.76;100.00
41624;BME280;27319;50.306;18.926;2023-08-06T01:17:29;96736.03;;;18.70;100.00
41624;BME280;27319;50.306;18.926;2023-08-06T01:21:30;96753.69;;;18.68;100.00
41624;BME280;27319;50.306;18.926;2023-08-06T01:25:34;96751.50;;;18.70;100.00
41624;BME280;27319;50.306;18.926;2023-08-06T01:33:04;96738.75;;;18.70;100.00
41624;BME280;27319;50.306;18.926;2023-08-06T01:37:04;96717.56;;;18.72;100.00
41624;BME280;27319;50.306;18.926;2023-08-06T01:41:05;96690.19;;;18.79;100.00
41624;BME280;27319;50.306;18.926;2023-08-06T01:45:06;96686.59;;;18.73;100.00
41624;BME280;27319;50.306;18.926;2023-08-06T01:49:06;96663.41;;;18.66;100.00
41624;BME280;27319;50.306;18.926;2023-08-06T01:53:07;96665.06;;;18.67;100.00
41624;BME280;27319;50.306;18.926;2023-08-06T01:57:08;96690.28;;;18.62;100.00
41624;BME280;27319;50.306;18.926;2023-08-06T02:01:08;96705.25;;;18.65;100.00
41624;BME280;27319;50.306;18.926;2023-08-06T02:05:09;96703.44;;;18.70;100.00
41624;BME280;27319;50.306;18.926;2023-08-06T02:09:09;96703.72;;;18.74;100.00
41624;BME280;27319;50.306;18.926;2023-08-06T02:13:10;96704.75;;;18.68;100.00
41624;BME280;27319;50.306;18.926;2023-08-06T02:17:11;96703.97;;;18.72;100.00
41624;BME280;27319;50.306;18.926;2023-08-06T02:21:17;96687.97;;;18.76;100.00
41624;BME280;27319;50.306;18.926;2023-08-06T02:25:18;96685.25;;;18.76;100.00
41624;BME280;27319;50.306;18.926;2023-08-06T02:29:19;96691.88;;;18.85;100.00
41624;BME280;27319;50.306;18.926;2023-08-06T02:33:19;96699.09;;;18.74;100.00
41624;BME280;27319;50.306;18.926;2023-08-06T02:37:20;96694.78;;;18.78;100.00
41624;BME280;27319;50.306;18.926;2023-08-06T02:41:24;96695.69;;;18.89;100.00
41624;BME280;27319;50.306;18.926;2023-08-06T02:45:25;96673.09;;;18.83;100.00
41624;BME280;27319;50.306;18.926;2023-08-06T02:49:26;96665.00;;;18.88;100.00
41624;BME280;27319;50.306;18.926;2023-08-06T02:53:26;96660.34;;;18.84;100.00
41624;BME280;27319;50.306;18.926;2023-08-06T02:57:27;96659.25;;;18.85;100.00
41624;BME280;27319;50.306;18.926;2023-08-06T03:01:27;96647.84;;;18.88;100.00
41624;BME280;27319;50.306;18.926;2023-08-06T03:05:28;96649.78;;;18.87;100.00
41624;BME280;27319;50.306;18.926;2023-08-06T03:09:29;96636.44;;;18.86;100.00
41624;BME280;27319;50.306;18.926;2023-08-06T03:13:29;96631.03;;;18.91;100.00
41624;BME280;27319;50.306;18.926;2023-08-06T03:17:30;96634.25;;;18.88;100.00
41624;BME280;27319;50.306;18.926;2023-08-06T03:21:31;96629.13;;;18.91;100.00
41624;BME280;27319;50.306;18.926;2023-08-06T03:25:34;96626.94;;;18.88;100.00
41624;BME280;27319;50.306;18.926;2023-08-06T03:29:32;96632.69;;;18.92;100.00
41624;BME280;27319;50.306;18.926;2023-08-06T03:33:33;96633.75;;;18.91;100.00
41624;BME280;27319;50.306;18.926;2023-08-06T03:37:34;96625.03;;;18.89;100.00
41624;BME280;27319;50.306;18.926;2023-08-06T03:41:35;96626.69;;;18.90;100.00
41624;BME280;27319;50.306;18.926;2023-08-06T03:45:35;96622.31;;;18.89;100.00
41624;BME280;27319;50.306;18.926;2023-08-06T03:49:36;96600.59;;;18.94;100.00
41624;BME280;27319;50.306;18.926;2023-08-06T03:53:37;96604.50;;;19.03;100.00
41624;BME280;27319;50.306;18.926;2023-08-06T03:57:37;96599.91;;;19.08;100.00
41624;BME280;27319;50.306;18.926;2023-08-06T04:01:38;96589.00;;;19.08;100.00
41624;BME280;27319;50.306;18.926;2023-08-06T04:05:39;96602.06;;;19.06;100.00
41624;BME280;27319;50.306;18.926;2023-08-06T04:09:52;96589.59;;;19.10;100.00
41624;BME280;27319;50.306;18.926;2023-08-06T04:13:52;96595.53;;;19.07;100.00
41624;BME280;27319;50.306;18.926;2023-08-06T04:17:53;96590.44;;;19.16;100.00
41624;BME280;27319;50.306;18.926;2023-08-06T04:21:54;96594.78;;;19.17;100.00
41624;BME280;27319;50.306;18.926;2023-08-06T04:25:57;96584.75;;;19.17;100.00
41624;BME280;27319;50.306;18.926;2023-08-06T04:29:58;96583.41;;;19.20;100.00
41624;BME280;27319;50.306;18.926;2023-08-06T04:34:01;96596.41;;;19.18;100.00
41624;BME280;27319;50.306;18.926;2023-08-06T04:38:02;96592.31;;;19.10;100.00
41624;BME280;27319;50.306;18.926;2023-08-06T04:42:03;96576.31;;;19.19;100.00
41624;BME280;27319;50.306;18.926;2023-08-06T04:46:06;96562.69;;;19.14;100.00
41624;BME280;27319;50.306;18.926;2023-08-06T04:50:07;96557.72;;;19.01;100.00
41624;BME280;27319;50.306;18.926;2023-08-06T04:54:08;96565.41;;;19.14;100.00
41624;BME280;27319;50.306;18.926;2023-08-06T04:58:09;96562.09;;;19.07;100.00
41624;BME280;27319;50.306;18.926;2023-08-06T05:02:09;96564.53;;;19.08;100.00
41624;BME280;27319;50.306;18.926;2023-08-06T05:06:10;96553.06;;;19.01;100.00
41624;BME280;27319;50.306;18.926;2023-08-06T05:10:11;96549.03;;;19.04;100.00
41624;BME280;27319;50.306;18.926;2023-08-06T05:14:11;96546.84;;;19.01;100.00
41624;BME280;27319;50.306;18.926;2023-08-06T05:18:12;96546.09;;;19.10;100.00
41624;BME280;27319;50.306;18.926;2023-08-06T05:22:13;96541.38;;;18.96;100.00
41624;BME280;27319;50.306;18.926;2023-08-06T05:26:14;96533.09;;;18.81;100.00
41624;BME280;27319;50.306;18.926;2023-08-06T05:30:14;96525.34;;;18.63;100.00
41624;BME280;27319;50.306;18.926;2023-08-06T05:34:15;96529.06;;;18.52;100.00
41624;BME280;27319;50.306;18.926;2023-08-06T05:38:16;96528.34;;;18.35;100.00
41624;BME280;27319;50.306;18.926;2023-08-06T05:41:57;96518.03;;;18.32;100.00
41624;BME280;27319;50.306;18.926;2023-08-06T05:44:57;96522.53;;;18.26;100.00
41624;BME280;27319;50.306;18.926;2023-08-06T05:47:58;96524.47;;;18.31;100.00
41624;BME280;27319;50.306;18.926;2023-08-06T05:50:59;96518.44;;;18.24;100.00
41624;BME280;27319;50.306;18.926;2023-08-06T05:54:00;96521.03;;;18.09;100.00
41624;BME280;27319;50.306;18.926;2023-08-06T05:57:01;96509.28;;;18.03;100.00
41624;BME280;27319;50.306;18.926;2023-08-06T06:00:02;96490.19;;;17.93;100.00
41624;BME280;27319;50.306;18.926;2023-08-06T06:03:03;96496.13;;;17.90;100.00
41624;BME280;27319;50.306;18.926;2023-08-06T06:06:04;96492.59;;;17.90;100.00
41624;BME280;27319;50.306;18.926;2023-08-06T06:09:05;96493.78;;;17.99;100.00
41624;BME280;27319;50.306;18.926;2023-08-06T06:12:06;96489.97;;;18.00;100.00
41624;BME280;27319;50.306;18.926;2023-08-06T06:15:07;96492.03;;;17.88;100.00
41624;BME280;27319;50.306;18.926;2023-08-06T06:18:08;96484.97;;;17.60;100.00
41624;BME280;27319;50.306;18.926;2023-08-06T06:21:10;96481.88;;;17.52;100.00
41624;BME280;27319;50.306;18.926;2023-08-06T06:24:31;96479.84;;;17.42;100.00
41624;BME280;27319;50.306;18.926;2023-08-06T06:28:32;96462.34;;;17.33;100.00
41624;BME280;27319;50.306;18.926;2023-08-06T06:32:32;96473.69;;;17.09;100.00
41624;BME280;27319;50.306;18.926;2023-08-06T06:36:34;96488.78;;;17.21;100.00
41624;BME280;27319;50.306;18.926;2023-08-06T06:40:34;96459.34;;;17.08;100.00
41624;BME280;27319;50.306;18.926;2023-08-06T06:44:35;96469.19;;;17.14;100.00
41624;BME280;27319;50.306;18.926;2023-08-06T06:48:35;96450.16;;;16.93;100.00
41624;BME280;27319;50.306;18.926;2023-08-06T06:52:45;96434.59;;;16.83;100.00
41624;BME280;27319;50.306;18.926;2023-08-06T06:56:46;96436.41;;;16.56;100.00
41624;BME280;27319;50.306;18.926;2023-08-06T07:00:47;96436.31;;;16.35;100.00
41624;BME280;27319;50.306;18.926;2023-08-06T07:04:47;96422.53;;;16.36;100.00
41624;BME280;27319;50.306;18.926;2023-08-06T07:08:48;96397.75;;;16.28;100.00
41624;BME280;27319;50.306;18.926;2023-08-06T07:12:49;96390.00;;;16.15;100.00
41624;BME280;27319;50.306;18.926;2023-08-06T07:16:50;96399.91;;;15.93;100.00
41624;BME280;27319;50.306;18.926;2023-08-06T07:20:57;96396.13;;;15.94;100.00
41624;BME280;27319;50.306;18.926;2023-08-06T07:24:58;96408.28;;;16.08;100.00
41624;BME280;27319;50.306;18.926;2023-08-06T07:28:58;96430.09;;;16.01;100.00
41624;BME280;27319;50.306;18.926;2023-08-06T07:32:59;96464.66;;;15.83;100.00
41624;BME280;27319;50.306;18.926;2023-08-06T07:37:00;96487.00;;;16.06;100.00
41624;BME280;27319;50.306;18.926;2023-08-06T07:41:01;96493.72;;;16.04;100.00
41624;BME280;27319;50.306;18.926;2023-08-06T07:45:01;96463.13;;;15.87;100.00
41624;BME280;27319;50.306;18.926;2023-08-06T07:49:02;96463.44;;;15.74;100.00
41624;BME280;27319;50.306;18.926;2023-08-06T07:53:02;96457.56;;;15.93;100.00
41624;BME280;27319;50.306;18.926;2023-08-06T07:57:03;96442.88;;;15.89;100.00
41624;BME280;27319;50.306;18.926;2023-08-06T08:01:05;96466.31;;;15.84;100.00
41624;BME280;27319;50.306;18.926;2023-08-06T08:05:05;96483.50;;;15.78;100.00
41624;BME280;27319;50.306;18.926;2023-08-06T08:09:06;96488.03;;;15.72;100.00
41624;BME280;27319;50.306;18.926;2023-08-06T08:13:10;96460.69;;;16.02;100.00
41624;BME280;27319;50.306;18.926;2023-08-06T08:17:11;96434.28;;;16.09;100.00
41624;BME280;27319;50.306;18.926;2023-08-06T08:21:12;96466.28;;;15.67;100.00
41624;BME280;27319;50.306;18.926;2023-08-06T08:25:13;96475.44;;;15.94;100.00
41624;BME280;27319;50.306;18.926;2023-08-06T08:29:13;96472.41;;;16.07;100.00
41624;BME280;27319;50.306;18.926;2023-08-06T08:33:14;96459.34;;;15.88;100.00
41624;BME280;27319;50.306;18.926;2023-08-06T08:37:15;96456.81;;;15.98;100.00
41624;BME280;27319;50.306;18.926;2023-08-06T08:41:16;96451.78;;;15.90;100.00
41624;BME280;27319;50.306;18.926;2023-08-06T08:45:16;96441.34;;;16.10;100.00
41624;BME280;27319;50.306;18.926;2023-08-06T08:49:17;96456.81;;;15.98;100.00
41624;BME280;27319;50.306;18.926;2023-08-06T08:53:05;96463.34;;;15.85;100.00
41624;BME280;27319;50.306;18.926;2023-08-06T08:56:06;96468.88;;;16.07;100.00
41624;BME280;27319;50.306;18.926;2023-08-06T08:59:07;96466.75;;;16.09;100.00
41624;BME280;27319;50.306;18.926;2023-08-06T09:02:09;96468.63;;;15.92;100.00
41624;BME280;27319;50.306;18.926;2023-08-06T09:05:12;96459.59;;;15.86;100.00
41624;BME280;27319;50.306;18.926;2023-08-06T09:08:35;96463.34;;;15.85;100.00
41624;BME280;27319;50.306;18.926;2023-08-06T09:12:35;96454.19;;;15.86;100.00
41624;BME280;27319;50.306;18.926;2023-08-06T09:16:35;96459.69;;;15.91;100.00
41624;BME280;27319;50.306;18.926;2023-08-06T09:20:39;96464.38;;;15.96;100.00
41624;BME280;27319;50.306;18.926;2023-08-06T09:24:43;96463.53;;;15.95;100.00
41624;BME280;27319;50.306;18.926;2023-08-06T09:28:43;96438.13;;;16.13;100.00
41624;BME280;27319;50.306;18.926;2023-08-06T09:32:47;96431.22;;;15.89;100.00
41624;BME280;27319;50.306;18.926;2023-08-06T09:36:46;96414.94;;;16.00;100.00
41624;BME280;27319;50.306;18.926;2023-08-06T09:40:48;96429.94;;;16.08;100.00
41624;BME280;27319;50.306;18.926;2023-08-06T09:44:49;96428.22;;;16.02;100.00
41624;BME280;27319;50.306;18.926;2023-08-06T09:48:50;96435.50;;;16.18;100.00
41624;BME280;27319;50.306;18.926;2023-08-06T09:52:50;96441.75;;;16.18;100.00
41624;BME280;27319;50.306;18.926;2023-08-06T09:56:51;96448.53;;;16.04;100.00
41624;BME280;27319;50.306;18.926;2023-08-06T10:00:52;96444.84;;;15.94;100.00
41624;BME280;27319;50.306;18.926;2023-08-06T10:04:53;96441.25;;;16.05;100.00
41624;BME280;27319;50.306;18.926;2023-08-06T10:08:53;96448.47;;;15.99;100.00
41624;BME280;27319;50.306;18.926;2023-08-06T10:12:55;96449.78;;;15.97;100.00
41624;BME280;27319;50.306;18.926;2023-08-06T10:16:56;96457.47;;;15.88;100.00
41624;BME280;27319;50.306;18.926;2023-08-06T10:20:55;96451.78;;;15.90;100.00
41624;BME280;27319;50.306;18.926;2023-08-06T10:24:46;96458.69;;;15.81;100.00
41624;BME280;27319;50.306;18.926;2023-08-06T10:28:55;96472.53;;;15.84;100.00
41624;BME280;27319;50.306;18.926;2023-08-06T10:32:57;96475.16;;;15.79;100.00
41624;BME280;27319;50.306;18.926;2023-08-06T10:36:57;96483.94;;;15.58;100.00
41624;BME280;27319;50.306;18.926;2023-08-06T10:41:01;96496.00;;;15.79;100.00
41624;BME280;27319;50.306;18.926;2023-08-06T10:45:13;96491.19;;;15.69;100.00
41624;BME280;27319;50.306;18.926;2023-08-06T10:49:13;96493.63;;;15.54;100.00
41624;BME280;27319;50.306;18.926;2023-08-06T10:53:13;96493.72;;;15.59;100.00
41624;BME280;27319;50.306;18.926;2023-08-06T10:57:14;96492.78;;;15.54;100.00
41624;BME280;27319;50.306;18.926;2023-08-06T11:01:15;96493.66;;;15.71;100.00
41624;BME280;27319;50.306;18.926;2023-08-06T11:04:56;96487.88;;;15.79;100.00
41624;BME280;27319;50.306;18.926;2023-08-06T11:07:56;96496.00;;;15.79;100.00
41624;BME280;27319;50.306;18.926;2023-08-06T11:11:08;96490.84;;;15.66;100.00
41624;BME280;27319;50.306;18.926;2023-08-06T11:14:15;96508.72;;;15.67;100.00
41624;BME280;27319;50.306;18.926;2023-08-06T11:17:16;96509.88;;;15.71;100.00
41624;BME280;27319;50.306;18.926;2023-08-06T11:20:20;96524.03;;;15.61;100.00
41624;BME280;27319;50.306;18.926;2023-08-06T11:23:42;96538.09;;;15.75;100.00
41624;BME280;27319;50.306;18.926;2023-08-06T11:27:42;96542.41;;;15.87;100.00
41624;BME280;27319;50.306;18.926;2023-08-06T11:31:43;96528.78;;;15.54;100.00
41624;BME280;27319;50.306;18.926;2023-08-06T11:35:44;96523.25;;;15.49;100.00
41624;BME280;27319;50.306;18.926;2023-08-06T11:39:46;96529.06;;;15.69;100.00
41624;BME280;27319;50.306;18.926;2023-08-06T11:43:48;96533.66;;;15.69;100.00
41624;BME280;27319;50.306;18.926;2023-08-06T11:47:51;96517.47;;;15.85;100.00
41624;BME280;27319;50.306;18.926;2023-08-06T11:51:52;96523.22;;;15.89;100.00
41624;BME280;27319;50.306;18.926;2023-08-06T11:55:52;96524.81;;;15.73;100.00
41624;BME280;27319;50.306;18.926;2023-08-06T11:59:01;96528.91;;;15.76;100.00
41624;BME280;27319;50.306;18.926;2023-08-06T12:02:03;96539.59;;;15.82;100.00
41624;BME280;27319;50.306;18.926;2023-08-06T12:05:15;96536.16;;;15.87;100.00
41624;BME280;27319;50.306;18.926;2023-08-06T12:08:16;96536.31;;;15.80;100.00
41624;BME280;27319;50.306;18.926;2023-08-06T12:11:21;96536.28;;;15.92;100.00
41624;BME280;27319;50.306;18.926;2023-08-06T12:14:21;96550.25;;;15.89;100.00
41624;BME280;27319;50.306;18.926;2023-08-06T12:17:24;96560.56;;;16.03;100.00
41624;BME280;27319;50.306;18.926;2023-08-06T12:20:45;96563.66;;;15.95;100.00
41624;BME280;27319;50.306;18.926;2023-08-06T12:24:46;96561.72;;;15.79;100.00
41624;BME280;27319;50.306;18.926;2023-08-06T12:28:46;96558.34;;;16.00;100.00
41624;BME280;27319;50.306;18.926;2023-08-06T12:32:47;96565.91;;;16.15;100.00
41624;BME280;27319;50.306;18.926;2023-08-06T12:36:48;96568.13;;;16.18;100.00
41624;BME280;27319;50.306;18.926;2023-08-06T12:40:08;96567.66;;;16.21;100.00
41624;BME280;27319;50.306;18.926;2023-08-06T12:44:09;96583.78;;;16.16;100.00
41624;BME280;27319;50.306;18.926;2023-08-06T12:48:09;96589.13;;;16.11;100.00
41624;BME280;27319;50.306;18.926;2023-08-06T12:52:10;96593.19;;;15.97;100.00
41624;BME280;27319;50.306;18.926;2023-08-06T12:55:51;96586.16;;;16.12;100.00
41624;BME280;27319;50.306;18.926;2023-08-06T12:59:13;96586.41;;;16.11;100.00
41624;BME280;27319;50.306;18.926;2023-08-06T13:03:13;96582.34;;;16.25;100.00
41624;BME280;27319;50.306;18.926;2023-08-06T13:07:13;96578.16;;;16.17;100.00
41624;BME280;27319;50.306;18.926;2023-08-06T13:11:15;96581.44;;;16.36;100.00
41624;BME280;27319;50.306;18.926;2023-08-06T13:15:15;96583.66;;;16.22;100.00
41624;BME280;27319;50.306;18.926;2023-08-06T13:19:16;96588.47;;;16.48;100.00
41624;BME280;27319;50.306;18.926;2023-08-06T13:23:17;96579.72;;;16.30;100.00
41624;BME280;27319;50.306;18.926;2023-08-06T13:27:18;96582.78;;;16.33;100.00
41624;BME280;27319;50.306;18.926;2023-08-06T13:31:18;96593.09;;;16.64;100.00
41624;BME280;27319;50.306;18.926;2023-08-06T13:35:19;96596.06;;;16.79;100.00
41624;BME280;27319;50.306;18.926;2023-08-06T13:39:20;96594.81;;;16.70;100.00
41624;BME280;27319;50.306;18.926;2023-08-06T13:43:21;96610.16;;;16.65;100.00
41624;BME280;27319;50.306;18.926;2023-08-06T13:47:22;96618.84;;;16.83;100.00
41624;BME280;27319;50.306;18.926;2023-08-06T13:51:22;96608.69;;;16.57;100.00
41624;BME280;27319;50.306;18.926;2023-08-06T13:55:23;96623.53;;;16.27;100.00
41624;BME280;27319;50.306;18.926;2023-08-06T13:59:24;96624.06;;;16.12;100.00
41624;BME280;27319;50.306;18.926;2023-08-06T14:03:21;96625.91;;;16.23;100.00
41624;BME280;27319;50.306;18.926;2023-08-06T14:07:21;96625.16;;;16.28;100.00
41624;BME280;27319;50.306;18.926;2023-08-06T14:11:22;96625.06;;;16.51;100.00
41624;BME280;27319;50.306;18.926;2023-08-06T14:15:23;96617.22;;;16.66;100.00
41624;BME280;27319;50.306;18.926;2023-08-06T14:19:24;96624.28;;;16.67;100.00
41624;BME280;27319;50.306;18.926;2023-08-06T14:23:24;96631.00;;;16.48;100.00
41624;BME280;27319;50.306;18.926;2023-08-06T14:27:25;96631.19;;;16.74;100.00
41624;BME280;27319;50.306;18.926;2023-08-06T14:31:25;96662.69;;;16.64;100.00
41624;BME280;27319;50.306;18.926;2023-08-06T14:35:27;96660.94;;;16.58;100.00
41624;BME280;27319;50.306;18.926;2023-08-06T14:39:27;96671.03;;;16.46;100.00
41624;BME280;27319;50.306;18.926;2023-08-06T14:43:28;96671.19;;;16.39;100.00
41624;BME280;27319;50.306;18.926;2023-08-06T14:47:29;96683.84;;;16.11;100.00
41624;BME280;27319;50.306;18.926;2023-08-06T14:51:29;96685.31;;;16.02;100.00
41624;BME280;27319;50.306;18.926;2023-08-06T14:55:30;96711.31;;;15.91;100.00
41624;BME280;27319;50.306;18.926;2023-08-06T14:59:31;96700.25;;;15.93;100.00
41624;BME280;27319;50.306;18.926;2023-08-06T15:03:32;96698.72;;;15.97;100.00
41624;BME280;27319;50.306;18.926;2023-08-06T15:07:33;96683.44;;;15.79;100.00
41624;BME280;27319;50.306;18.926;2023-08-06T15:11:33;96682.25;;;15.87;100.00
41624;BME280;27319;50.306;18.926;2023-08-06T15:15:34;96692.53;;;15.73;100.00
41624;BME280;27319;50.306;18.926;2023-08-06T15:19:35;96679.34;;;15.77;100.00
41624;BME280;27319;50.306;18.926;2023-08-06T15:23:36;96675.69;;;15.83;100.00
41624;BME280;27319;50.306;18.926;2023-08-06T15:27:36;96686.03;;;15.86;100.00
41624;BME280;27319;50.306;18.926;2023-08-06T15:31:38;96686.31;;;15.73;100.00
41624;BME280;27319;50.306;18.926;2023-08-06T15:35:38;96678.75;;;15.75;100.00
41624;BME280;27319;50.306;18.926;2023-08-06T15:39:39;96689.69;;;15.68;100.00
41624;BME280;27319;50.306;18.926;2023-08-06T15:43:40;96710.03;;;15.71;100.00
41624;BME280;27319;50.306;18.926;2023-08-06T15:47:40;96719.34;;;15.75;100.00
41624;BME280;27319;50.306;18.926;2023-08-06T15:51:41;96738.16;;;15.70;100.00
41624;BME280;27319;50.306;18.926;2023-08-06T15:55:42;96741.69;;;15.70;100.00
41624;BME280;27319;50.306;18.926;2023-08-06T15:59:43;96751.09;;;15.68;100.00
41624;BME280;27319;50.306;18.926;2023-08-06T16:03:43;96749.09;;;15.52;100.00
41624;BME280;27319;50.306;18.926;2023-08-06T16:07:44;96767.81;;;15.53;100.00
41624;BME280;27319;50.306;18.926;2023-08-06T16:11:47;96772.59;;;15.40;100.00
41624;BME280;27319;50.306;18.926;2023-08-06T16:15:48;96792.47;;;15.34;100.00
41624;BME280;27319;50.306;18.926;2023-08-06T16:19:49;96793.16;;;15.41;100.00
41624;BME280;27319;50.306;18.926;2023-08-06T16:23:49;96798.84;;;15.51;100.00
41624;BME280;27319;50.306;18.926;2023-08-06T16:27:50;96794.47;;;15.38;100.00
41624;BME280;27319;50.306;18.926;2023-08-06T16:31:51;96813.63;;;15.37;100.00
41624;BME280;27319;50.306;18.926;2023-08-06T16:35:52;96829.31;;;15.28;100.00
41624;BME280;27319;50.306;18.926;2023-08-06T16:39:53;96811.38;;;15.34;100.00
41624;BME280;27319;50.306;18.926;2023-08-06T16:43:53;96827.22;;;15.30;100.00
41624;BME280;27319;50.306;18.926;2023-08-06T16:47:54;96822.13;;;15.22;100.00
41624;BME280;27319;50.306;18.926;2023-08-06T16:51:55;96822.03;;;15.29;100.00
41624;BME280;27319;50.306;18.926;2023-08-06T16:55:55;96824.38;;;15.25;100.00
41624;BME280;27319;50.306;18.926;2023-08-06T16:59:56;96835.19;;;15.25;100.00
41624;BME280;27319;50.306;18.926;2023-08-06T17:03:56;96845.66;;;15.22;100.00
41624;BME280;27319;50.306;18.926;2023-08-06T17:07:37;96844.38;;;15.24;100.00
41624;BME280;27319;50.306;18.926;2023-08-06T17:10:38;96852.69;;;15.23;100.00
41624;BME280;27319;50.306;18.926;2023-08-06T17:13:39;96857.81;;;15.13;100.00
41624;BME280;27319;50.306;18.926;2023-08-06T17:16:40;96856.53;;;15.15;100.00
41624;BME280;27319;50.306;18.926;2023-08-06T17:19:44;96864.28;;;15.12;100.00
41624;BME280;27319;50.306;18.926;2023-08-06T17:22:45;96855.72;;;15.15;100.00
41624;BME280;27319;50.306;18.926;2023-08-06T17:25:46;96861.44;;;15.07;100.00
41624;BME280;27319;50.306;18.926;2023-08-06T17:28:46;96858.03;;;15.00;100.00
41624;BME280;27319;50.306;18.926;2023-08-06T17:31:48;96870.13;;;15.09;100.00
41624;BME280;27319;50.306;18.926;2023-08-06T17:34:48;96862.94;;;15.03;100.00
41624;BME280;27319;50.306;18.926;2023-08-06T17:37:49;96877.31;;;15.15;100.00
41624;BME280;27319;50.306;18.926;2023-08-06T17:40:53;96868.06;;;15.11;100.00
41624;BME280;27319;50.306;18.926;2023-08-06T17:43:55;96876.53;;;15.14;100.00
41624;BME280;27319;50.306;18.926;2023-08-06T17:46:58;96874.41;;;15.16;100.00
41624;BME280;27319;50.306;18.926;2023-08-06T17:49:59;96870.28;;;15.14;100.00
41624;BME280;27319;50.306;18.926;2023-08-06T17:53:07;96876.00;;;15.06;100.00
41624;BME280;27319;50.306;18.926;2023-08-06T17:56:10;96878.38;;;15.14;100.00
41624;BME280;27319;50.306;18.926;2023-08-06T17:59:10;96871.19;;;15.08;100.00
41624;BME280;27319;50.306;18.926;2023-08-06T18:02:11;96880.94;;;15.09;100.00
41624;BME280;27319;50.306;18.926;2023-08-06T18:05:15;96889.97;;;15.03;100.00
41624;BME280;27319;50.306;18.926;2023-08-06T18:08:16;96880.91;;;14.97;100.00
41624;BME280;27319;50.306;18.926;2023-08-06T18:11:17;96877.75;;;15.00;100.00
41624;BME280;27319;50.306;18.926;2023-08-06T18:14:18;96879.72;;;14.93;100.00
41624;BME280;27319;50.306;18.926;2023-08-06T18:17:20;96889.97;;;15.03;100.00
41624;BME280;27319;50.306;18.926;2023-08-06T18:20:22;96900.63;;;14.98;100.00
41624;BME280;27319;50.306;18.926;2023-08-06T18:23:22;96892.53;;;14.98;100.00
41624;BME280;27319;50.306;18.926;2023-08-06T18:26:23;96900.34;;;15.06;100.00
41624;BME280;27319;50.306;18.926;2023-08-06T18:29:25;96895.50;;;15.08;100.00
41624;BME280;27319;50.306;18.926;2023-08-06T18:32:26;96903.34;;;14.98;100.00
41624;BME280;27319;50.306;18.926;2023-08-06T18:35:26;96893.31;;;14.87;100.00
41624;BME280;27319;50.306;18.926;2023-08-06T18:38:27;96891.78;;;14.91;100.00
41624;BME280;27319;50.306;18.926;2023-08-06T18:41:28;96900.19;;;15.01;100.00
41624;BME280;27319;50.306;18.926;2023-08-06T18:44:29;96898.41;;;14.95;100.00
41624;BME280;27319;50.306;18.926;2023-08-06T18:47:30;96898.06;;;15.03;100.00
41624;BME280;27319;50.306;18.926;2023-08-06T18:50:31;96892.09;;;15.01;100.00
41624;BME280;27319;50.306;18.926;2023-08-06T18:53:37;96899.25;;;14.95;100.00
41624;BME280;27319;50.306;18.926;2023-08-06T18:56:38;96898.84;;;14.92;100.00
41624;BME280;27319;50.306;18.926;2023-08-06T18:59:39;96897.19;;;14.91;100.00
41624;BME280;27319;50.306;18.926;2023-08-06T19:03:00;96902.44;;;15.04;100.00
41624;BME280;27319;50.306;18.926;2023-08-06T19:07:01;96907.56;;;14.94;100.00
41624;BME280;27319;50.306;18.926;2023-08-06T19:11:02;96907.19;;;14.90;100.00
41624;BME280;27319;50.306;18.926;2023-08-06T19:15:03;96910.81;;;14.84;100.00
41624;BME280;27319;50.306;18.926;2023-08-06T19:19:03;96918.00;;;14.90;100.00
41624;BME280;27319;50.306;18.926;2023-08-06T19:23:04;96922.34;;;14.91;100.00
41624;BME280;27319;50.306;18.926;2023-08-06T19:27:05;96915.22;;;14.79;100.00
41624;BME280;27319;50.306;18.926;2023-08-06T19:31:06;96914.31;;;14.85;100.00
41624;BME280;27319;50.306;18.926;2023-08-06T19:35:07;96907.50;;;14.82;100.00